HTI weather

Hamilton Island Airport
Hamilton Island, Queensland, Australia

Public forecast

Using degrees Celsius for public forecast. Weather courtesy of forecast.io.

METAR (pilot weather report)

Retrieved 2019/03/21 23:30 UTC (9 minutes ago):

YBHM 212330Z AUTO 11012KT 9999 // SCT020 SCT025 BKN032 27/24 Q1013

TAF (pilot weather forecast)

Retrieved 2019/03/21 18:00 UTC (6 hours ago):

TAF YBHM 211707Z 2118/2206 07008KT 9999 -SHRA SCT022 SCT040 FM212300 11014KT 9999 SCT022 FM220200 12018KT 9999 SCT025